sensor_id;sensor_type;location;lat;lon;timestamp;P1;durP1;ratioP1;P2;durP2;ratioP2
40170;SDS011;37650;52.790;18.268;2022-08-01T00:02:47;5.20;;;2.70;;
40170;SDS011;37650;52.790;18.268;2022-08-01T00:06:10;4.50;;;2.90;;
40170;SDS011;37650;52.790;18.268;2022-08-01T00:09:31;6.80;;;3.40;;
40170;SDS011;37650;52.790;18.268;2022-08-01T00:12:52;7.80;;;3.30;;
40170;SDS011;37650;52.790;18.268;2022-08-01T00:16:14;8.30;;;3.60;;
40170;SDS011;37650;52.790;18.268;2022-08-01T00:19:55;4.10;;;2.80;;
40170;SDS011;37650;52.790;18.268;2022-08-01T00:23:15;8.30;;;3.60;;
40170;SDS011;37650;52.790;18.268;2022-08-01T00:26:37;5.10;;;3.20;;
40170;SDS011;37650;52.790;18.268;2022-08-01T00:30:20;5.60;;;4.20;;
40170;SDS011;37650;52.790;18.268;2022-08-01T00:33:40;5.10;;;3.30;;
40170;SDS011;37650;52.790;18.268;2022-08-01T00:37:02;4.70;;;3.20;;
40170;SDS011;37650;52.790;18.268;2022-08-01T00:40:23;6.90;;;3.60;;
40170;SDS011;37650;52.790;18.268;2022-08-01T00:43:50;6.00;;;3.50;;
40170;SDS011;37650;52.790;18.268;2022-08-01T00:47:11;6.10;;;2.90;;
40170;SDS011;37650;52.790;18.268;2022-08-01T00:50:42;8.00;;;3.10;;
40170;SDS011;37650;52.790;18.268;2022-08-01T00:54:16;4.50;;;2.80;;
40170;SDS011;37650;52.790;18.268;2022-08-01T00:58:02;5.10;;;3.70;;
40170;SDS011;37650;52.790;18.268;2022-08-01T01:01:25;7.40;;;4.20;;
40170;SDS011;37650;52.790;18.268;2022-08-01T01:04:52;5.60;;;3.50;;
40170;SDS011;37650;52.790;18.268;2022-08-01T01:08:19;6.90;;;4.40;;
40170;SDS011;37650;52.790;18.268;2022-08-01T01:12:19;6.10;;;4.10;;
40170;SDS011;37650;52.790;18.268;2022-08-01T01:19:27;6.70;;;4.00;;
40170;SDS011;37650;52.790;18.268;2022-08-01T01:26:36;7.90;;;4.00;;
40170;SDS011;37650;52.790;18.268;2022-08-01T01:30:13;5.30;;;3.60;;
40170;SDS011;37650;52.790;18.268;2022-08-01T01:33:34;9.50;;;4.50;;
40170;SDS011;37650;52.790;18.268;2022-08-01T01:36:58;7.20;;;3.80;;
40170;SDS011;37650;52.790;18.268;2022-08-01T01:40:21;7.10;;;3.90;;
40170;SDS011;37650;52.790;18.268;2022-08-01T01:43:44;7.30;;;3.80;;
40170;SDS011;37650;52.790;18.268;2022-08-01T01:47:30;5.20;;;3.50;;
40170;SDS011;37650;52.790;18.268;2022-08-01T01:50:58;8.10;;;3.60;;
40170;SDS011;37650;52.790;18.268;2022-08-01T01:54:28;7.40;;;3.30;;
40170;SDS011;37650;52.790;18.268;2022-08-01T01:58:51;7.00;;;4.40;;
40170;SDS011;37650;52.790;18.268;2022-08-01T02:02:18;7.30;;;4.50;;
40170;SDS011;37650;52.790;18.268;2022-08-01T02:05:42;6.30;;;3.80;;
40170;SDS011;37650;52.790;18.268;2022-08-01T02:09:21;7.30;;;4.00;;
40170;SDS011;37650;52.790;18.268;2022-08-01T02:13:04;6.40;;;3.70;;
40170;SDS011;37650;52.790;18.268;2022-08-01T02:16:34;6.30;;;3.60;;
40170;SDS011;37650;52.790;18.268;2022-08-01T02:20:03;7.20;;;3.50;;
40170;SDS011;37650;52.790;18.268;2022-08-01T02:28:29;6.10;;;3.60;;
40170;SDS011;37650;52.790;18.268;2022-08-01T02:32:19;6.10;;;4.30;;
40170;SDS011;37650;52.790;18.268;2022-08-01T02:35:50;7.00;;;4.10;;
40170;SDS011;37650;52.790;18.268;2022-08-01T02:39:31;7.30;;;5.10;;
40170;SDS011;37650;52.790;18.268;2022-08-01T02:43:40;6.90;;;4.20;;
40170;SDS011;37650;52.790;18.268;2022-08-01T02:51:03;5.80;;;3.90;;
40170;SDS011;37650;52.790;18.268;2022-08-01T02:54:26;7.10;;;4.90;;
40170;SDS011;37650;52.790;18.268;2022-08-01T02:58:09;8.50;;;4.90;;
40170;SDS011;37650;52.790;18.268;2022-08-01T03:01:33;8.60;;;4.50;;
40170;SDS011;37650;52.790;18.268;2022-08-01T03:04:56;6.00;;;4.30;;
40170;SDS011;37650;52.790;18.268;2022-08-01T03:08:19;7.00;;;4.20;;
40170;SDS011;37650;52.790;18.268;2022-08-01T03:11:41;5.90;;;3.90;;
40170;SDS011;37650;52.790;18.268;2022-08-01T03:15:05;8.60;;;4.10;;
40170;SDS011;37650;52.790;18.268;2022-08-01T03:18:30;6.40;;;3.90;;
40170;SDS011;37650;52.790;18.268;2022-08-01T03:21:55;6.90;;;4.50;;
40170;SDS011;37650;52.790;18.268;2022-08-01T03:25:18;9.50;;;5.30;;
40170;SDS011;37650;52.790;18.268;2022-08-01T03:28:44;9.00;;;5.50;;
40170;SDS011;37650;52.790;18.268;2022-08-01T03:32:07;6.70;;;5.40;;
40170;SDS011;37650;52.790;18.268;2022-08-01T03:35:39;8.20;;;5.00;;
40170;SDS011;37650;52.790;18.268;2022-08-01T03:39:06;8.90;;;4.40;;
40170;SDS011;37650;52.790;18.268;2022-08-01T03:42:33;9.30;;;4.90;;
40170;SDS011;37650;52.790;18.268;2022-08-01T03:45:59;5.40;;;4.20;;
40170;SDS011;37650;52.790;18.268;2022-08-01T03:49:41;6.10;;;4.30;;
40170;SDS011;37650;52.790;18.268;2022-08-01T03:53:04;8.10;;;5.30;;
40170;SDS011;37650;52.790;18.268;2022-08-01T03:56:29;6.30;;;4.50;;
40170;SDS011;37650;52.790;18.268;2022-08-01T03:59:55;8.70;;;4.30;;
40170;SDS011;37650;52.790;18.268;2022-08-01T04:03:19;7.60;;;4.90;;
40170;SDS011;37650;52.790;18.268;2022-08-01T04:06:40;7.90;;;4.20;;
40170;SDS011;37650;52.790;18.268;2022-08-01T04:10:05;8.50;;;5.10;;
40170;SDS011;37650;52.790;18.268;2022-08-01T04:13:26;5.60;;;4.00;;
40170;SDS011;37650;52.790;18.268;2022-08-01T04:16:47;7.10;;;4.50;;
40170;SDS011;37650;52.790;18.268;2022-08-01T04:20:09;7.00;;;4.40;;
40170;SDS011;37650;52.790;18.268;2022-08-01T04:23:32;8.10;;;5.70;;
40170;SDS011;37650;52.790;18.268;2022-08-01T04:26:56;7.40;;;5.60;;
40170;SDS011;37650;52.790;18.268;2022-08-01T04:30:21;10.20;;;6.00;;
40170;SDS011;37650;52.790;18.268;2022-08-01T04:33:47;10.10;;;5.90;;
40170;SDS011;37650;52.790;18.268;2022-08-01T04:37:12;9.20;;;5.70;;
40170;SDS011;37650;52.790;18.268;2022-08-01T04:40:36;7.80;;;5.20;;
40170;SDS011;37650;52.790;18.268;2022-08-01T04:43:59;9.00;;;5.30;;
40170;SDS011;37650;52.790;18.268;2022-08-01T04:47:20;11.50;;;5.30;;
40170;SDS011;37650;52.790;18.268;2022-08-01T04:50:42;10.00;;;7.20;;
40170;SDS011;37650;52.790;18.268;2022-08-01T04:54:02;11.40;;;6.40;;
40170;SDS011;37650;52.790;18.268;2022-08-01T04:57:24;11.20;;;4.80;;
40170;SDS011;37650;52.790;18.268;2022-08-01T05:00:46;10.30;;;4.90;;
40170;SDS011;37650;52.790;18.268;2022-08-01T05:04:08;7.80;;;5.40;;
40170;SDS011;37650;52.790;18.268;2022-08-01T05:07:30;11.60;;;7.10;;
40170;SDS011;37650;52.790;18.268;2022-08-01T05:10:50;8.80;;;6.00;;
40170;SDS011;37650;52.790;18.268;2022-08-01T05:14:13;7.00;;;5.30;;
40170;SDS011;37650;52.790;18.268;2022-08-01T05:17:34;9.10;;;5.50;;
40170;SDS011;37650;52.790;18.268;2022-08-01T05:20:55;9.80;;;6.10;;
40170;SDS011;37650;52.790;18.268;2022-08-01T05:24:16;9.90;;;6.60;;
40170;SDS011;37650;52.790;18.268;2022-08-01T05:27:37;8.80;;;6.80;;
40170;SDS011;37650;52.790;18.268;2022-08-01T05:31:00;10.60;;;5.80;;
40170;SDS011;37650;52.790;18.268;2022-08-01T05:34:21;10.10;;;7.40;;
40170;SDS011;37650;52.790;18.268;2022-08-01T05:37:42;10.60;;;6.50;;
40170;SDS011;37650;52.790;18.268;2022-08-01T05:41:03;6.80;;;4.60;;
40170;SDS011;37650;52.790;18.268;2022-08-01T05:44:23;7.20;;;4.60;;
40170;SDS011;37650;52.790;18.268;2022-08-01T05:47:46;6.90;;;4.60;;
40170;SDS011;37650;52.790;18.268;2022-08-01T05:51:22;7.20;;;4.10;;
40170;SDS011;37650;52.790;18.268;2022-08-01T05:54:43;7.70;;;5.60;;
40170;SDS011;37650;52.790;18.268;2022-08-01T05:58:04;7.60;;;4.10;;
40170;SDS011;37650;52.790;18.268;2022-08-01T06:01:25;8.40;;;3.80;;
40170;SDS011;37650;52.790;18.268;2022-08-01T06:04:46;6.00;;;3.40;;
40170;SDS011;37650;52.790;18.268;2022-08-01T06:08:07;7.80;;;3.10;;
40170;SDS011;37650;52.790;18.268;2022-08-01T06:11:27;7.20;;;4.40;;
40170;SDS011;37650;52.790;18.268;2022-08-01T06:14:48;6.20;;;3.80;;
40170;SDS011;37650;52.790;18.268;2022-08-01T06:18:09;6.60;;;3.40;;
40170;SDS011;37650;52.790;18.268;2022-08-01T06:21:30;5.00;;;3.20;;
40170;SDS011;37650;52.790;18.268;2022-08-01T06:24:51;6.70;;;4.30;;
40170;SDS011;37650;52.790;18.268;2022-08-01T06:28:13;8.80;;;3.20;;
40170;SDS011;37650;52.790;18.268;2022-08-01T06:31:34;8.30;;;3.40;;
40170;SDS011;37650;52.790;18.268;2022-08-01T06:34:54;5.30;;;3.30;;
40170;SDS011;37650;52.790;18.268;2022-08-01T06:38:15;10.80;;;5.10;;
40170;SDS011;37650;52.790;18.268;2022-08-01T06:41:37;5.40;;;4.50;;
40170;SDS011;37650;52.790;18.268;2022-08-01T06:44:57;5.20;;;3.70;;
40170;SDS011;37650;52.790;18.268;2022-08-01T06:48:19;6.10;;;3.30;;
40170;SDS011;37650;52.790;18.268;2022-08-01T06:51:40;8.00;;;4.30;;
40170;SDS011;37650;52.790;18.268;2022-08-01T06:55:01;5.00;;;3.80;;
40170;SDS011;37650;52.790;18.268;2022-08-01T06:58:24;6.20;;;4.00;;
40170;SDS011;37650;52.790;18.268;2022-08-01T07:01:45;7.00;;;4.20;;
40170;SDS011;37650;52.790;18.268;2022-08-01T07:05:06;5.10;;;3.60;;
40170;SDS011;37650;52.790;18.268;2022-08-01T07:08:27;5.40;;;3.90;;
40170;SDS011;37650;52.790;18.268;2022-08-01T07:11:49;6.50;;;3.90;;
40170;SDS011;37650;52.790;18.268;2022-08-01T07:18:31;6.20;;;4.20;;
40170;SDS011;37650;52.790;18.268;2022-08-01T07:21:52;5.80;;;3.90;;
40170;SDS011;37650;52.790;18.268;2022-08-01T07:25:13;5.80;;;4.00;;
40170;SDS011;37650;52.790;18.268;2022-08-01T07:28:34;5.40;;;4.00;;
40170;SDS011;37650;52.790;18.268;2022-08-01T07:31:55;7.50;;;3.70;;
40170;SDS011;37650;52.790;18.268;2022-08-01T07:35:24;11.20;;;4.10;;
40170;SDS011;37650;52.790;18.268;2022-08-01T07:38:50;8.20;;;3.90;;
40170;SDS011;37650;52.790;18.268;2022-08-01T07:42:19;8.80;;;3.90;;
40170;SDS011;37650;52.790;18.268;2022-08-01T07:45:41;4.50;;;3.20;;
40170;SDS011;37650;52.790;18.268;2022-08-01T07:49:02;10.20;;;4.60;;
40170;SDS011;37650;52.790;18.268;2022-08-01T07:52:23;8.50;;;3.80;;
40170;SDS011;37650;52.790;18.268;2022-08-01T07:55:43;6.90;;;3.90;;
40170;SDS011;37650;52.790;18.268;2022-08-01T07:59:04;5.90;;;4.00;;
40170;SDS011;37650;52.790;18.268;2022-08-01T08:02:26;6.10;;;3.80;;
40170;SDS011;37650;52.790;18.268;2022-08-01T08:05:47;5.70;;;3.10;;
40170;SDS011;37650;52.790;18.268;2022-08-01T08:09:08;5.50;;;3.30;;
40170;SDS011;37650;52.790;18.268;2022-08-01T08:15:51;7.00;;;4.30;;
40170;SDS011;37650;52.790;18.268;2022-08-01T08:19:13;5.10;;;3.60;;
40170;SDS011;37650;52.790;18.268;2022-08-01T08:22:34;8.40;;;3.30;;
40170;SDS011;37650;52.790;18.268;2022-08-01T08:25:55;5.70;;;3.10;;
40170;SDS011;37650;52.790;18.268;2022-08-01T08:29:17;7.30;;;3.00;;
40170;SDS011;37650;52.790;18.268;2022-08-01T08:32:37;4.40;;;2.50;;
40170;SDS011;37650;52.790;18.268;2022-08-01T08:36:00;6.40;;;3.20;;
40170;SDS011;37650;52.790;18.268;2022-08-01T08:39:21;4.90;;;2.60;;
40170;SDS011;37650;52.790;18.268;2022-08-01T08:42:43;7.00;;;3.00;;
40170;SDS011;37650;52.790;18.268;2022-08-01T08:46:06;4.00;;;2.60;;
40170;SDS011;37650;52.790;18.268;2022-08-01T08:49:33;10.50;;;4.00;;
40170;SDS011;37650;52.790;18.268;2022-08-01T08:52:57;8.60;;;3.20;;
40170;SDS011;37650;52.790;18.268;2022-08-01T08:56:27;4.00;;;2.60;;
40170;SDS011;37650;52.790;18.268;2022-08-01T08:59:57;6.20;;;3.70;;
40170;SDS011;37650;52.790;18.268;2022-08-01T09:03:22;4.80;;;3.10;;
40170;SDS011;37650;52.790;18.268;2022-08-01T09:06:42;6.10;;;3.40;;
40170;SDS011;37650;52.790;18.268;2022-08-01T09:10:03;4.90;;;3.00;;
40170;SDS011;37650;52.790;18.268;2022-08-01T09:13:24;9.00;;;4.50;;
40170;SDS011;37650;52.790;18.268;2022-08-01T09:17:09;7.60;;;4.10;;
40170;SDS011;37650;52.790;18.268;2022-08-01T09:20:31;7.40;;;4.90;;
40170;SDS011;37650;52.790;18.268;2022-08-01T09:23:54;4.90;;;4.10;;
40170;SDS011;37650;52.790;18.268;2022-08-01T09:27:20;6.40;;;3.50;;
40170;SDS011;37650;52.790;18.268;2022-08-01T09:30:43;6.60;;;3.90;;
40170;SDS011;37650;52.790;18.268;2022-08-01T09:34:04;5.50;;;3.70;;
40170;SDS011;37650;52.790;18.268;2022-08-01T09:37:46;6.00;;;4.20;;
40170;SDS011;37650;52.790;18.268;2022-08-01T09:41:07;6.60;;;3.80;;
40170;SDS011;37650;52.790;18.268;2022-08-01T09:44:38;6.50;;;4.20;;
40170;SDS011;37650;52.790;18.268;2022-08-01T09:48:05;5.70;;;3.70;;
40170;SDS011;37650;52.790;18.268;2022-08-01T09:51:29;10.30;;;4.70;;
40170;SDS011;37650;52.790;18.268;2022-08-01T09:55:08;13.50;;;5.80;;
40170;SDS011;37650;52.790;18.268;2022-08-01T09:58:38;7.50;;;4.30;;
40170;SDS011;37650;52.790;18.268;2022-08-01T10:02:14;5.90;;;4.00;;
40170;SDS011;37650;52.790;18.268;2022-08-01T10:06:19;9.00;;;4.40;;
40170;SDS011;37650;52.790;18.268;2022-08-01T10:09:43;6.20;;;4.70;;
40170;SDS011;37650;52.790;18.268;2022-08-01T10:13:10;6.90;;;4.10;;
40170;SDS011;37650;52.790;18.268;2022-08-01T10:20:09;6.00;;;4.30;;
40170;SDS011;37650;52.790;18.268;2022-08-01T10:23:40;7.00;;;4.80;;
40170;SDS011;37650;52.790;18.268;2022-08-01T10:27:05;7.20;;;4.40;;
40170;SDS011;37650;52.790;18.268;2022-08-01T10:30:37;5.70;;;4.50;;
40170;SDS011;37650;52.790;18.268;2022-08-01T10:34:04;6.90;;;4.90;;
40170;SDS011;37650;52.790;18.268;2022-08-01T10:37:30;6.80;;;4.20;;
40170;SDS011;37650;52.790;18.268;2022-08-01T10:40:53;6.80;;;4.90;;
40170;SDS011;37650;52.790;18.268;2022-08-01T10:44:17;4.90;;;3.80;;
40170;SDS011;37650;52.790;18.268;2022-08-01T10:51:14;6.30;;;4.00;;
40170;SDS011;37650;52.790;18.268;2022-08-01T10:54:39;6.90;;;3.90;;
40170;SDS011;37650;52.790;18.268;2022-08-01T10:58:39;5.90;;;3.30;;
40170;SDS011;37650;52.790;18.268;2022-08-01T11:02:03;6.50;;;3.70;;
40170;SDS011;37650;52.790;18.268;2022-08-01T11:05:30;4.50;;;3.40;;
40170;SDS011;37650;52.790;18.268;2022-08-01T11:08:55;4.90;;;3.20;;
40170;SDS011;37650;52.790;18.268;2022-08-01T11:12:21;4.80;;;3.40;;
40170;SDS011;37650;52.790;18.268;2022-08-01T11:16:24;6.50;;;3.50;;
40170;SDS011;37650;52.790;18.268;2022-08-01T11:23:50;7.80;;;3.80;;
40170;SDS011;37650;52.790;18.268;2022-08-01T11:31:24;8.40;;;3.20;;
40170;SDS011;37650;52.790;18.268;2022-08-01T11:34:53;5.30;;;3.30;;
40170;SDS011;37650;52.790;18.268;2022-08-01T11:38:24;5.60;;;3.50;;
40170;SDS011;37650;52.790;18.268;2022-08-01T11:41:48;7.50;;;3.80;;
40170;SDS011;37650;52.790;18.268;2022-08-01T11:45:46;6.90;;;3.50;;
40170;SDS011;37650;52.790;18.268;2022-08-01T11:53:10;6.80;;;3.30;;
40170;SDS011;37650;52.790;18.268;2022-08-01T11:56:31;7.60;;;4.80;;
40170;SDS011;37650;52.790;18.268;2022-08-01T11:59:56;8.60;;;3.70;;
40170;SDS011;37650;52.790;18.268;2022-08-01T12:03:23;5.20;;;2.70;;
40170;SDS011;37650;52.790;18.268;2022-08-01T12:06:48;4.40;;;3.20;;
40170;SDS011;37650;52.790;18.268;2022-08-01T12:10:16;7.00;;;2.90;;
40170;SDS011;37650;52.790;18.268;2022-08-01T12:13:42;4.30;;;2.50;;
40170;SDS011;37650;52.790;18.268;2022-08-01T12:17:04;4.90;;;2.70;;
40170;SDS011;37650;52.790;18.268;2022-08-01T12:20:30;6.70;;;2.40;;
40170;SDS011;37650;52.790;18.268;2022-08-01T12:24:02;5.00;;;3.20;;
40170;SDS011;37650;52.790;18.268;2022-08-01T12:27:27;4.90;;;2.70;;
40170;SDS011;37650;52.790;18.268;2022-08-01T12:30:49;5.90;;;2.50;;
40170;SDS011;37650;52.790;18.268;2022-08-01T12:34:29;6.10;;;2.70;;
40170;SDS011;37650;52.790;18.268;2022-08-01T12:37:55;5.00;;;2.60;;
40170;SDS011;37650;52.790;18.268;2022-08-01T12:41:37;5.20;;;2.80;;
40170;SDS011;37650;52.790;18.268;2022-08-01T12:45:00;5.40;;;2.60;;
40170;SDS011;37650;52.790;18.268;2022-08-01T12:48:26;7.80;;;2.80;;
40170;SDS011;37650;52.790;18.268;2022-08-01T12:51:50;5.40;;;2.60;;
40170;SDS011;37650;52.790;18.268;2022-08-01T12:55:12;4.30;;;2.80;;
40170;SDS011;37650;52.790;18.268;2022-08-01T12:58:35;4.50;;;3.20;;
40170;SDS011;37650;52.790;18.268;2022-08-01T13:02:07;7.20;;;3.10;;
40170;SDS011;37650;52.790;18.268;2022-08-01T13:05:40;7.10;;;2.60;;
40170;SDS011;37650;52.790;18.268;2022-08-01T13:09:05;6.70;;;2.60;;
40170;SDS011;37650;52.790;18.268;2022-08-01T13:12:37;6.00;;;2.80;;
40170;SDS011;37650;52.790;18.268;2022-08-01T13:16:03;6.00;;;2.70;;
40170;SDS011;37650;52.790;18.268;2022-08-01T13:19:41;6.90;;;2.70;;
40170;SDS011;37650;52.790;18.268;2022-08-01T13:23:10;5.50;;;2.70;;
40170;SDS011;37650;52.790;18.268;2022-08-01T13:30:22;4.70;;;2.80;;
40170;SDS011;37650;52.790;18.268;2022-08-01T13:34:30;7.20;;;3.70;;
40170;SDS011;37650;52.790;18.268;2022-08-01T13:37:57;7.30;;;2.60;;
40170;SDS011;37650;52.790;18.268;2022-08-01T13:41:56;5.70;;;2.70;;
40170;SDS011;37650;52.790;18.268;2022-08-01T13:45:37;7.50;;;2.90;;
40170;SDS011;37650;52.790;18.268;2022-08-01T13:49:33;6.00;;;2.70;;
40170;SDS011;37650;52.790;18.268;2022-08-01T13:52:56;4.60;;;3.10;;
40170;SDS011;37650;52.790;18.268;2022-08-01T13:56:20;5.80;;;3.20;;
40170;SDS011;37650;52.790;18.268;2022-08-01T13:59:52;7.90;;;3.00;;
40170;SDS011;37650;52.790;18.268;2022-08-01T14:03:53;4.70;;;2.80;;
40170;SDS011;37650;52.790;18.268;2022-08-01T14:07:55;5.30;;;2.70;;
40170;SDS011;37650;52.790;18.268;2022-08-01T14:11:19;5.60;;;2.90;;
40170;SDS011;37650;52.790;18.268;2022-08-01T14:15:02;6.50;;;3.10;;
40170;SDS011;37650;52.790;18.268;2022-08-01T14:18:50;9.00;;;3.20;;
40170;SDS011;37650;52.790;18.268;2022-08-01T14:22:25;7.90;;;3.40;;
40170;SDS011;37650;52.790;18.268;2022-08-01T14:26:15;7.50;;;3.20;;
40170;SDS011;37650;52.790;18.268;2022-08-01T14:29:46;5.70;;;3.20;;
40170;SDS011;37650;52.790;18.268;2022-08-01T14:33:07;6.10;;;2.80;;
40170;SDS011;37650;52.790;18.268;2022-08-01T14:36:31;4.80;;;2.60;;
40170;SDS011;37650;52.790;18.268;2022-08-01T14:39:58;8.50;;;3.70;;
40170;SDS011;37650;52.790;18.268;2022-08-01T14:43:40;4.80;;;3.50;;
40170;SDS011;37650;52.790;18.268;2022-08-01T14:47:10;4.00;;;2.60;;
40170;SDS011;37650;52.790;18.268;2022-08-01T14:50:37;6.40;;;3.50;;
40170;SDS011;37650;52.790;18.268;2022-08-01T14:53:58;7.10;;;3.40;;
40170;SDS011;37650;52.790;18.268;2022-08-01T14:57:32;5.40;;;3.40;;
40170;SDS011;37650;52.790;18.268;2022-08-01T15:01:12;5.50;;;3.20;;
40170;SDS011;37650;52.790;18.268;2022-08-01T15:05:00;5.70;;;3.20;;
40170;SDS011;37650;52.790;18.268;2022-08-01T15:08:48;6.00;;;3.20;;
40170;SDS011;37650;52.790;18.268;2022-08-01T15:13:12;5.50;;;3.50;;
40170;SDS011;37650;52.790;18.268;2022-08-01T15:16:34;6.50;;;3.40;;
40170;SDS011;37650;52.790;18.268;2022-08-01T15:19:55;8.40;;;3.80;;
40170;SDS011;37650;52.790;18.268;2022-08-01T15:23:21;7.50;;;3.40;;
40170;SDS011;37650;52.790;18.268;2022-08-01T15:27:30;6.50;;;3.30;;
40170;SDS011;37650;52.790;18.268;2022-08-01T15:31:10;5.10;;;3.30;;
40170;SDS011;37650;52.790;18.268;2022-08-01T15:34:35;6.30;;;3.20;;
40170;SDS011;37650;52.790;18.268;2022-08-01T15:38:00;4.40;;;3.10;;
40170;SDS011;37650;52.790;18.268;2022-08-01T15:41:45;7.20;;;3.00;;
40170;SDS011;37650;52.790;18.268;2022-08-01T15:45:09;6.90;;;2.70;;
40170;SDS011;37650;52.790;18.268;2022-08-01T15:48:41;6.90;;;2.80;;
40170;SDS011;37650;52.790;18.268;2022-08-01T15:52:03;5.80;;;3.00;;
40170;SDS011;37650;52.790;18.268;2022-08-01T15:55:49;4.00;;;2.80;;
40170;SDS011;37650;52.790;18.268;2022-08-01T15:59:19;4.20;;;2.60;;
40170;SDS011;37650;52.790;18.268;2022-08-01T16:06:04;4.90;;;3.10;;
40170;SDS011;37650;52.790;18.268;2022-08-01T16:09:28;6.30;;;2.80;;
40170;SDS011;37650;52.790;18.268;2022-08-01T16:13:11;6.70;;;3.10;;
40170;SDS011;37650;52.790;18.268;2022-08-01T16:16:32;8.10;;;3.10;;
40170;SDS011;37650;52.790;18.268;2022-08-01T16:19:53;4.60;;;3.20;;
40170;SDS011;37650;52.790;18.268;2022-08-01T16:23:16;4.30;;;3.10;;
40170;SDS011;37650;52.790;18.268;2022-08-01T16:26:39;7.30;;;2.80;;
40170;SDS011;37650;52.790;18.268;2022-08-01T16:33:29;5.40;;;3.20;;
40170;SDS011;37650;52.790;18.268;2022-08-01T16:36:54;5.00;;;3.40;;
40170;SDS011;37650;52.790;18.268;2022-08-01T16:40:20;6.10;;;2.80;;
40170;SDS011;37650;52.790;18.268;2022-08-01T16:43:47;4.30;;;3.30;;
40170;SDS011;37650;52.790;18.268;2022-08-01T16:47:32;5.00;;;3.20;;
40170;SDS011;37650;52.790;18.268;2022-08-01T16:50:56;6.50;;;3.30;;
40170;SDS011;37650;52.790;18.268;2022-08-01T16:55:14;6.00;;;3.00;;
40170;SDS011;37650;52.790;18.268;2022-08-01T17:03:15;5.40;;;3.20;;
40170;SDS011;37650;52.790;18.268;2022-08-01T17:06:51;7.00;;;3.20;;
40170;SDS011;37650;52.790;18.268;2022-08-01T17:10:46;6.90;;;3.80;;
40170;SDS011;37650;52.790;18.268;2022-08-01T17:14:42;6.60;;;3.90;;
40170;SDS011;37650;52.790;18.268;2022-08-01T17:18:47;5.30;;;3.40;;
40170;SDS011;37650;52.790;18.268;2022-08-01T17:22:36;8.40;;;3.50;;
40170;SDS011;37650;52.790;18.268;2022-08-01T17:26:08;8.20;;;3.50;;
40170;SDS011;37650;52.790;18.268;2022-08-01T17:29:42;7.40;;;3.30;;
40170;SDS011;37650;52.790;18.268;2022-08-01T17:33:11;7.10;;;3.70;;
40170;SDS011;37650;52.790;18.268;2022-08-01T17:36:42;7.40;;;3.60;;
40170;SDS011;37650;52.790;18.268;2022-08-01T17:40:37;5.10;;;3.30;;
40170;SDS011;37650;52.790;18.268;2022-08-01T17:43:58;5.40;;;3.40;;
40170;SDS011;37650;52.790;18.268;2022-08-01T17:47:44;5.60;;;3.50;;
40170;SDS011;37650;52.790;18.268;2022-08-01T17:51:08;6.80;;;4.00;;
40170;SDS011;37650;52.790;18.268;2022-08-01T17:54:42;6.90;;;3.90;;
40170;SDS011;37650;52.790;18.268;2022-08-01T17:58:04;5.90;;;4.00;;
40170;SDS011;37650;52.790;18.268;2022-08-01T18:01:52;6.50;;;4.10;;
40170;SDS011;37650;52.790;18.268;2022-08-01T18:06:01;7.10;;;4.00;;
40170;SDS011;37650;52.790;18.268;2022-08-01T18:10:00;8.10;;;3.70;;
40170;SDS011;37650;52.790;18.268;2022-08-01T18:13:41;7.40;;;3.80;;
40170;SDS011;37650;52.790;18.268;2022-08-01T18:17:04;9.70;;;4.60;;
40170;SDS011;37650;52.790;18.268;2022-08-01T18:22:17;5.90;;;4.50;;
40170;SDS011;37650;52.790;18.268;2022-08-01T18:26:41;5.90;;;4.30;;
40170;SDS011;37650;52.790;18.268;2022-08-01T18:34:26;9.50;;;5.30;;
40170;SDS011;37650;52.790;18.268;2022-08-01T18:43:12;10.80;;;5.20;;
40170;SDS011;37650;52.790;18.268;2022-08-01T18:47:42;7.10;;;4.90;;
40170;SDS011;37650;52.790;18.268;2022-08-01T18:52:35;8.90;;;5.30;;
40170;SDS011;37650;52.790;18.268;2022-08-01T18:57:06;7.50;;;4.90;;
40170;SDS011;37650;52.790;18.268;2022-08-01T19:07:03;9.00;;;5.80;;
40170;SDS011;37650;52.790;18.268;2022-08-01T19:11:38;11.10;;;5.70;;
40170;SDS011;37650;52.790;18.268;2022-08-01T19:24:27;8.60;;;6.20;;
40170;SDS011;37650;52.790;18.268;2022-08-01T19:28:55;8.20;;;6.80;;
40170;SDS011;37650;52.790;18.268;2022-08-01T19:33:44;10.80;;;7.20;;
40170;SDS011;37650;52.790;18.268;2022-08-01T19:38:09;11.50;;;8.20;;
40170;SDS011;37650;52.790;18.268;2022-08-01T19:48:06;10.00;;;6.80;;
40170;SDS011;37650;52.790;18.268;2022-08-01T19:52:27;11.70;;;6.80;;
40170;SDS011;37650;52.790;18.268;2022-08-01T19:57:31;7.30;;;6.10;;
40170;SDS011;37650;52.790;18.268;2022-08-01T20:10:32;9.50;;;6.00;;
40170;SDS011;37650;52.790;18.268;2022-08-01T20:18:49;7.70;;;5.60;;
40170;SDS011;37650;52.790;18.268;2022-08-01T20:23:42;10.50;;;5.60;;
40170;SDS011;37650;52.790;18.268;2022-08-01T20:28:39;9.30;;;5.70;;
40170;SDS011;37650;52.790;18.268;2022-08-01T20:33:27;9.60;;;6.30;;
40170;SDS011;37650;52.790;18.268;2022-08-01T20:37:47;9.70;;;6.30;;
40170;SDS011;37650;52.790;18.268;2022-08-01T20:47:40;9.70;;;5.70;;
40170;SDS011;37650;52.790;18.268;2022-08-01T20:52:19;9.90;;;6.70;;
40170;SDS011;37650;52.790;18.268;2022-08-01T21:11:28;11.20;;;8.40;;
40170;SDS011;37650;52.790;18.268;2022-08-01T21:16:11;9.90;;;8.20;;
40170;SDS011;37650;52.790;18.268;2022-08-01T21:25:25;13.00;;;10.50;;
40170;SDS011;37650;52.790;18.268;2022-08-01T21:29:43;18.30;;;11.70;;
40170;SDS011;37650;52.790;18.268;2022-08-01T21:34:25;10.30;;;8.30;;
40170;SDS011;37650;52.790;18.268;2022-08-01T21:38:26;11.30;;;9.10;;
40170;SDS011;37650;52.790;18.268;2022-08-01T21:42:36;13.00;;;9.50;;
40170;SDS011;37650;52.790;18.268;2022-08-01T21:46:18;13.50;;;11.00;;
40170;SDS011;37650;52.790;18.268;2022-08-01T21:50:20;13.00;;;9.70;;
40170;SDS011;37650;52.790;18.268;2022-08-01T21:58:17;11.40;;;9.60;;
40170;SDS011;37650;52.790;18.268;2022-08-01T22:02:53;11.20;;;9.80;;
40170;SDS011;37650;52.790;18.268;2022-08-01T22:06:24;12.50;;;10.80;;
40170;SDS011;37650;52.790;18.268;2022-08-01T22:10:31;14.50;;;10.40;;
40170;SDS011;37650;52.790;18.268;2022-08-01T22:15:10;12.50;;;9.40;;
40170;SDS011;37650;52.790;18.268;2022-08-01T22:19:15;11.00;;;9.10;;
40170;SDS011;37650;52.790;18.268;2022-08-01T22:23:56;11.30;;;8.80;;
40170;SDS011;37650;52.790;18.268;2022-08-01T22:28:39;9.70;;;7.60;;
40170;SDS011;37650;52.790;18.268;2022-08-01T22:33:21;10.10;;;6.70;;
40170;SDS011;37650;52.790;18.268;2022-08-01T22:37:42;9.60;;;7.60;;
40170;SDS011;37650;52.790;18.268;2022-08-01T22:42:20;10.60;;;6.10;;
40170;SDS011;37650;52.790;18.268;2022-08-01T22:47:06;9.60;;;6.30;;
40170;SDS011;37650;52.790;18.268;2022-08-01T22:51:51;11.70;;;4.90;;
40170;SDS011;37650;52.790;18.268;2022-08-01T22:56:38;7.90;;;4.40;;
40170;SDS011;37650;52.790;18.268;2022-08-01T23:01:20;6.80;;;4.20;;
40170;SDS011;37650;52.790;18.268;2022-08-01T23:06:49;5.80;;;4.30;;
40170;SDS011;37650;52.790;18.268;2022-08-01T23:11:23;8.10;;;4.80;;
40170;SDS011;37650;52.790;18.268;2022-08-01T23:15:46;6.90;;;4.30;;
40170;SDS011;37650;52.790;18.268;2022-08-01T23:20:10;6.00;;;4.40;;
40170;SDS011;37650;52.790;18.268;2022-08-01T23:24:55;9.30;;;5.30;;
40170;SDS011;37650;52.790;18.268;2022-08-01T23:29:36;6.30;;;4.00;;
40170;SDS011;37650;52.790;18.268;2022-08-01T23:34:15;8.30;;;4.70;;
40170;SDS011;37650;52.790;18.268;2022-08-01T23:38:25;5.30;;;4.00;;
40170;SDS011;37650;52.790;18.268;2022-08-01T23:42:52;6.10;;;3.90;;
40170;SDS011;37650;52.790;18.268;2022-08-01T23:47:37;6.10;;;4.00;;